createdAt,value
2019-03-17T00:00:31.197Z,6.70
2019-03-17T00:02:59.968Z,6.70
2019-03-17T00:05:28.453Z,6.70
2019-03-17T00:07:56.985Z,6.70
2019-03-17T00:10:25.535Z,6.70
2019-03-17T00:12:54.055Z,6.70
2019-03-17T00:15:22.562Z,6.70
2019-03-17T00:17:51.068Z,6.70
2019-03-17T00:20:19.589Z,6.70
2019-03-17T00:22:48.165Z,6.70
2019-03-17T00:25:37.656Z,6.80
2019-03-17T00:28:06.175Z,6.80
2019-03-17T00:30:34.742Z,6.80
2019-03-17T00:33:03.199Z,6.80
2019-03-17T00:35:31.710Z,6.80
2019-03-17T00:38:00.218Z,6.80
2019-03-17T00:40:28.700Z,6.80
2019-03-17T00:42:57.228Z,6.80
2019-03-17T00:45:25.683Z,6.80
2019-03-17T00:47:54.317Z,6.80
2019-03-17T00:50:22.884Z,6.80
2019-03-17T00:52:51.424Z,6.80
2019-03-17T00:55:19.886Z,6.80
2019-03-17T00:57:48.517Z,6.80
2019-03-17T01:00:17.121Z,6.80
2019-03-17T01:02:45.639Z,6.80
2019-03-17T01:05:14.342Z,6.80
2019-03-17T01:07:42.888Z,6.80
2019-03-17T01:10:11.546Z,6.80
2019-03-17T01:12:40.219Z,6.80
2019-03-17T01:15:08.743Z,6.80
2019-03-17T01:17:37.210Z,6.80
2019-03-17T01:20:08.700Z,6.80
2019-03-17T01:22:37.235Z,6.70
2019-03-17T01:25:09.568Z,6.70
2019-03-17T01:27:38.072Z,6.70
2019-03-17T01:30:27.390Z,6.70
2019-03-17T01:32:55.895Z,6.70
2019-03-17T01:35:24.437Z,6.70
2019-03-17T01:37:52.971Z,6.80
2019-03-17T01:40:21.552Z,6.80
2019-03-17T01:42:50.012Z,6.80
2019-03-17T01:45:39.360Z,6.80
2019-03-17T01:48:07.818Z,6.80
2019-03-17T01:50:36.286Z,6.80
2019-03-17T01:53:04.885Z,6.80
2019-03-17T01:55:33.345Z,6.80
2019-03-17T01:58:01.814Z,6.80
2019-03-17T02:00:30.563Z,6.80
2019-03-17T02:02:59.159Z,6.80
2019-03-17T02:05:27.599Z,6.80
2019-03-17T02:07:56.176Z,6.80
2019-03-17T02:10:24.845Z,6.80
2019-03-17T02:12:53.316Z,6.80
2019-03-17T02:15:21.828Z,6.80
2019-03-17T02:17:50.309Z,6.80
2019-03-17T02:20:18.844Z,6.80
2019-03-17T02:22:47.430Z,6.80
2019-03-17T02:25:15.889Z,6.80
2019-03-17T02:27:44.348Z,6.80
2019-03-17T02:30:13.528Z,6.70
2019-03-17T02:32:42.048Z,6.70
2019-03-17T02:35:10.588Z,6.70
2019-03-17T02:37:39.232Z,6.60
2019-03-17T02:40:07.889Z,6.60
2019-03-17T02:42:36.361Z,6.60
2019-03-17T02:45:07.682Z,6.60
2019-03-17T02:47:36.146Z,6.50
2019-03-17T02:50:06.335Z,6.50
2019-03-17T02:52:34.841Z,6.50
2019-03-17T02:55:03.668Z,6.50
2019-03-17T02:57:32.197Z,6.50
2019-03-17T03:00:00.953Z,6.40
2019-03-17T03:02:29.791Z,6.40
2019-03-17T03:04:58.235Z,6.40
2019-03-17T03:07:26.805Z,6.40
2019-03-17T03:09:55.407Z,6.40
2019-03-17T03:12:23.860Z,6.40
2019-03-17T03:14:52.397Z,6.40
2019-03-17T03:17:20.851Z,6.40
2019-03-17T03:19:49.388Z,6.40
2019-03-17T03:22:17.975Z,6.50
2019-03-17T03:24:46.446Z,6.50
2019-03-17T03:27:14.979Z,6.50
2019-03-17T03:29:43.544Z,6.50
2019-03-17T03:32:12.004Z,6.50
2019-03-17T03:34:40.512Z,6.50
2019-03-17T03:37:09.060Z,6.60
2019-03-17T03:39:37.558Z,6.60
2019-03-17T03:42:06.015Z,6.60
2019-03-17T03:44:34.545Z,6.70
2019-03-17T03:47:03.108Z,6.70
2019-03-17T03:49:31.647Z,6.80
2019-03-17T03:52:00.187Z,6.80
2019-03-17T03:54:29.015Z,6.80
2019-03-17T03:56:57.538Z,6.90
2019-03-17T03:59:26.113Z,6.90
2019-03-17T04:01:54.577Z,6.90
2019-03-17T04:04:23.040Z,6.90
2019-03-17T04:06:51.594Z,6.90
2019-03-17T04:09:20.053Z,6.90
2019-03-17T04:11:48.576Z,6.90
2019-03-17T04:14:17.088Z,6.90
2019-03-17T04:16:45.608Z,6.90
2019-03-17T04:19:14.067Z,7.00
2019-03-17T04:21:42.701Z,7.00
2019-03-17T04:24:11.155Z,7.00
2019-03-17T04:26:39.676Z,7.00
2019-03-17T04:29:08.159Z,7.00
2019-03-17T04:31:36.608Z,7.00
2019-03-17T04:34:05.129Z,7.00
2019-03-17T04:36:39.951Z,7.00
2019-03-17T04:39:05.116Z,7.00
2019-03-17T04:41:33.572Z,7.00
2019-03-17T04:44:02.072Z,7.00
2019-03-17T04:46:30.854Z,7.00
2019-03-17T04:48:59.419Z,7.00
2019-03-17T04:51:27.948Z,7.00
2019-03-17T04:53:56.399Z,7.00
2019-03-17T04:56:24.878Z,7.00
2019-03-17T04:58:53.362Z,7.10
2019-03-17T05:01:21.876Z,7.10
2019-03-17T05:03:50.323Z,7.20
2019-03-17T05:06:18.990Z,7.20
2019-03-17T05:08:47.449Z,7.20
2019-03-17T05:11:15.898Z,7.20
2019-03-17T05:13:44.383Z,7.20
2019-03-17T05:16:12.844Z,7.20
2019-03-17T05:18:41.298Z,7.20
2019-03-17T05:21:09.793Z,7.20
2019-03-17T05:23:38.247Z,7.20
2019-03-17T05:26:06.697Z,7.20
2019-03-17T05:28:35.194Z,7.10
2019-03-17T05:31:03.664Z,7.10
2019-03-17T05:33:32.263Z,7.10
2019-03-17T05:36:00.824Z,7.00
2019-03-17T05:38:30.103Z,7.00
2019-03-17T05:40:58.620Z,7.00
2019-03-17T05:43:27.119Z,7.00
2019-03-17T05:45:55.599Z,7.00
2019-03-17T05:48:24.104Z,7.10
2019-03-17T05:50:52.618Z,7.10
2019-03-17T05:53:21.067Z,7.10
2019-03-17T05:55:49.543Z,7.10
2019-03-17T05:58:18.062Z,7.10
2019-03-17T06:00:46.506Z,7.10
2019-03-17T06:03:14.970Z,7.10
2019-03-17T06:05:43.535Z,7.20
2019-03-17T06:08:11.986Z,7.20
2019-03-17T06:10:40.431Z,7.20
2019-03-17T06:13:08.943Z,7.20
2019-03-17T06:15:37.397Z,7.20
2019-03-17T06:18:05.851Z,7.20
2019-03-17T06:20:34.433Z,7.20
2019-03-17T06:23:02.915Z,7.20
2019-03-17T06:25:31.375Z,7.20
2019-03-17T06:27:59.952Z,7.30
2019-03-17T06:30:28.400Z,7.30
2019-03-17T06:32:57.120Z,7.30
2019-03-17T06:35:25.607Z,7.30
2019-03-17T06:37:54.074Z,7.30
2019-03-17T06:40:22.515Z,7.30
2019-03-17T06:42:51.035Z,7.30
2019-03-17T06:45:19.487Z,7.30
2019-03-17T06:47:47.947Z,7.20
2019-03-17T06:50:16.716Z,7.20
2019-03-17T06:52:45.178Z,7.20
2019-03-17T06:55:15.353Z,7.20
2019-03-17T06:57:43.908Z,7.30
2019-03-17T07:00:14.375Z,7.30
2019-03-17T07:03:02.203Z,7.30
2019-03-17T07:05:30.726Z,7.30
2019-03-17T07:07:59.263Z,7.30
2019-03-17T07:10:27.764Z,7.30
2019-03-17T07:12:56.221Z,7.30
2019-03-17T07:15:24.694Z,7.40
2019-03-17T07:17:53.194Z,7.40
2019-03-17T07:20:21.655Z,7.50
2019-03-17T07:22:50.111Z,7.50
2019-03-17T07:25:18.771Z,7.50
2019-03-17T07:27:47.223Z,7.50
2019-03-17T07:30:16.824Z,7.60
2019-03-17T07:32:45.395Z,7.50
2019-03-17T07:35:13.868Z,7.60
2019-03-17T07:37:42.401Z,7.50
2019-03-17T07:40:12.470Z,7.60
2019-03-17T07:42:40.996Z,7.50
2019-03-17T07:45:10.699Z,7.50
2019-03-17T07:47:39.287Z,7.60
2019-03-17T07:50:12.269Z,7.50
2019-03-17T07:52:40.734Z,7.50
2019-03-17T07:55:10.206Z,7.50
2019-03-17T07:57:38.743Z,7.50
2019-03-17T08:00:13.738Z,7.50
2019-03-17T08:02:42.315Z,7.50
2019-03-17T08:05:11.010Z,7.50
2019-03-17T08:07:39.480Z,7.50
2019-03-17T08:10:14.206Z,7.40
2019-03-17T08:12:42.724Z,7.40
2019-03-17T08:15:14.260Z,7.30
2019-03-17T08:17:42.768Z,7.30
2019-03-17T08:20:12.062Z,7.20
2019-03-17T08:22:40.619Z,7.20
2019-03-17T08:25:13.617Z,7.20
2019-03-17T08:27:42.198Z,7.10
2019-03-17T08:30:13.741Z,6.90
2019-03-17T08:32:42.461Z,6.80
2019-03-17T08:35:11.256Z,6.60
2019-03-17T08:37:39.882Z,6.50
2019-03-17T08:40:13.578Z,6.50
2019-03-17T08:42:42.102Z,6.40
2019-03-17T08:45:12.203Z,6.30
2019-03-17T08:47:40.924Z,6.40
2019-03-17T08:50:14.095Z,6.30
2019-03-17T08:52:42.549Z,6.20
2019-03-17T08:55:11.397Z,6.20
2019-03-17T08:57:39.856Z,6.30
2019-03-17T09:00:13.732Z,6.30
2019-03-17T09:02:42.306Z,6.30
2019-03-17T09:05:11.289Z,6.30
2019-03-17T09:07:39.896Z,6.30
2019-03-17T09:10:13.469Z,6.30
2019-03-17T09:12:41.970Z,6.30
2019-03-17T09:15:10.499Z,6.30
2019-03-17T09:17:39.087Z,6.30
2019-03-17T09:20:13.166Z,6.30
2019-03-17T09:22:41.714Z,6.30
2019-03-17T09:25:13.159Z,6.40
2019-03-17T09:27:41.786Z,6.40
2019-03-17T09:30:17.918Z,6.50
2019-03-17T09:32:46.653Z,6.60
2019-03-17T09:35:15.120Z,6.60
2019-03-17T09:37:43.698Z,6.60
2019-03-17T09:40:19.276Z,6.60
2019-03-17T09:42:47.815Z,6.60
2019-03-17T09:45:16.560Z,6.60
2019-03-17T09:47:45.013Z,6.50
2019-03-17T09:50:15.054Z,6.50
2019-03-17T09:52:43.583Z,6.50
2019-03-17T09:55:31.513Z,6.60
2019-03-17T09:57:59.961Z,6.70
2019-03-17T10:00:28.504Z,6.70
2019-03-17T10:02:57.141Z,6.70
2019-03-17T10:05:25.690Z,6.80
2019-03-17T10:07:54.223Z,6.80
2019-03-17T10:10:23.663Z,6.90
2019-03-17T10:12:52.200Z,6.90
2019-03-17T10:15:20.980Z,6.90
2019-03-17T10:17:49.646Z,6.90
2019-03-17T10:20:21.548Z,7.00
2019-03-17T10:22:50.077Z,7.10
2019-03-17T10:25:18.636Z,7.10
2019-03-17T10:27:47.243Z,7.10
2019-03-17T10:30:17.037Z,7.20
2019-03-17T10:32:45.545Z,7.30
2019-03-17T10:35:14.145Z,7.30
2019-03-17T10:37:42.601Z,7.30
2019-03-17T10:40:15.809Z,7.20
2019-03-17T10:42:44.355Z,7.30
2019-03-17T10:45:13.509Z,7.30
2019-03-17T10:47:42.589Z,7.40
2019-03-17T10:50:18.980Z,7.40
2019-03-17T10:52:47.549Z,7.40
2019-03-17T10:55:16.249Z,7.30
2019-03-17T10:57:44.793Z,7.30
2019-03-17T11:00:20.812Z,7.40
2019-03-17T11:02:49.299Z,7.20
2019-03-17T11:05:18.036Z,7.20
2019-03-17T11:07:46.610Z,7.20
2019-03-17T11:10:15.464Z,7.20
2019-03-17T11:12:43.926Z,7.20
2019-03-17T11:15:15.491Z,7.20
2019-03-17T11:17:43.955Z,7.30
2019-03-17T11:20:13.257Z,7.50
2019-03-17T11:22:42.005Z,7.40
2019-03-17T11:25:15.353Z,7.50
2019-03-17T11:27:43.873Z,7.50
2019-03-17T11:30:16.783Z,7.30
2019-03-17T11:32:45.423Z,7.20
2019-03-17T11:35:14.026Z,7.10
2019-03-17T11:37:42.664Z,7.10
2019-03-17T11:40:21.536Z,7.00
2019-03-17T11:42:50.618Z,7.00
2019-03-17T11:45:19.302Z,7.00
2019-03-17T11:47:47.828Z,6.90
2019-03-17T11:50:18.642Z,6.90
2019-03-17T11:52:47.162Z,6.80
2019-03-17T11:55:15.971Z,6.80
2019-03-17T11:57:44.799Z,6.80
2019-03-17T12:00:20.611Z,6.90
2019-03-17T12:02:49.375Z,6.90
2019-03-17T12:05:17.825Z,7.00
2019-03-17T12:07:46.360Z,7.00
2019-03-17T12:10:18.962Z,6.90
2019-03-17T12:12:47.417Z,7.00
2019-03-17T12:15:32.834Z,7.00
2019-03-17T12:18:01.289Z,7.10
2019-03-17T12:20:29.809Z,7.20
2019-03-17T12:22:58.393Z,7.30
2019-03-17T12:25:26.847Z,7.20
2019-03-17T12:27:55.304Z,7.30
2019-03-17T12:30:25.804Z,7.20
2019-03-17T12:32:55.257Z,7.20
2019-03-17T12:35:23.886Z,7.30
2019-03-17T12:38:11.738Z,7.20
2019-03-17T12:40:40.253Z,7.20
2019-03-17T12:43:08.714Z,7.30
2019-03-17T12:45:37.449Z,7.30
2019-03-17T12:48:05.969Z,7.30
2019-03-17T12:50:35.042Z,7.30
2019-03-17T12:53:03.751Z,7.40
2019-03-17T12:55:32.237Z,7.40
2019-03-17T12:58:00.758Z,7.50
2019-03-17T13:00:29.257Z,7.60
2019-03-17T13:02:57.706Z,7.80
2019-03-17T13:05:26.141Z,7.80
2019-03-17T13:07:54.635Z,7.50
2019-03-17T13:10:23.396Z,7.50
2019-03-17T13:12:51.860Z,7.50
2019-03-17T13:15:20.428Z,7.40
2019-03-17T13:17:48.905Z,7.50
2019-03-17T13:20:21.098Z,7.50
2019-03-17T13:22:49.597Z,7.40
2019-03-17T13:25:18.118Z,7.50
2019-03-17T13:27:46.605Z,7.60
2019-03-17T13:30:16.112Z,7.60
2019-03-17T13:32:44.996Z,7.70
2019-03-17T13:35:13.737Z,7.70
2019-03-17T13:37:42.639Z,7.70
2019-03-17T13:40:29.377Z,7.70
2019-03-17T13:42:51.050Z,7.70
2019-03-17T13:45:19.648Z,7.70
2019-03-17T13:47:48.161Z,7.70
2019-03-17T13:50:18.030Z,7.70
2019-03-17T13:52:46.632Z,7.60
2019-03-17T13:55:15.226Z,7.60
2019-03-17T13:57:59.018Z,7.50
2019-03-17T14:00:27.632Z,7.50
2019-03-17T14:02:56.089Z,7.70
2019-03-17T14:05:24.651Z,7.60
2019-03-17T14:07:53.188Z,7.70
2019-03-17T14:10:21.628Z,7.60
2019-03-17T14:12:50.140Z,7.60
2019-03-17T14:15:18.745Z,7.70
2019-03-17T14:17:47.254Z,7.60
2019-03-17T14:20:23.337Z,7.50
2019-03-17T14:22:51.924Z,7.30
2019-03-17T14:25:23.127Z,7.30
2019-03-17T14:27:51.687Z,7.30
2019-03-17T14:30:20.215Z,7.30
2019-03-17T14:32:48.667Z,7.20
2019-03-17T14:35:17.232Z,7.00
2019-03-17T14:37:45.758Z,7.00
2019-03-17T14:40:15.709Z,6.90
2019-03-17T14:42:46.590Z,7.00
2019-03-17T14:45:16.227Z,7.10
2019-03-17T14:47:44.827Z,7.10
2019-03-17T14:50:16.137Z,7.00
2019-03-17T14:52:44.735Z,7.00
2019-03-17T14:55:13.629Z,7.00
2019-03-17T14:57:42.137Z,7.10
2019-03-17T15:00:18.041Z,7.10
2019-03-17T15:02:46.610Z,7.00
2019-03-17T15:05:15.243Z,7.00
2019-03-17T15:07:44.020Z,7.00
2019-03-17T15:10:20.801Z,7.10
2019-03-17T15:12:49.392Z,7.00
2019-03-17T15:15:18.868Z,7.20
2019-03-17T15:17:48.170Z,7.20
2019-03-17T15:20:26.978Z,7.20
2019-03-17T15:22:55.663Z,7.50
2019-03-17T15:25:24.204Z,8.10
2019-03-17T15:27:52.724Z,8.60
2019-03-17T15:30:28.058Z,9.00
2019-03-17T15:32:56.879Z,9.00
2019-03-17T15:35:25.595Z,8.90
2019-03-17T15:37:54.110Z,8.50
2019-03-17T15:40:22.858Z,8.70
2019-03-17T15:42:52.701Z,9.20
2019-03-17T15:45:23.447Z,8.80
2019-03-17T15:47:52.047Z,8.60
2019-03-17T15:50:21.949Z,8.90
2019-03-17T15:52:50.592Z,9.10
2019-03-17T15:55:19.129Z,8.70
2019-03-17T15:57:47.740Z,8.70
2019-03-17T16:00:24.843Z,8.70
2019-03-17T16:02:49.479Z,8.00
2019-03-17T16:05:18.837Z,7.80
2019-03-17T16:07:47.767Z,7.40
2019-03-17T16:10:22.936Z,7.10
2019-03-17T16:12:51.537Z,7.10
2019-03-17T16:15:20.407Z,7.20
2019-03-17T16:17:48.936Z,7.20
2019-03-17T16:20:25.170Z,7.00
2019-03-17T16:22:53.707Z,7.10
2019-03-17T16:25:25.290Z,7.00
2019-03-17T16:27:55.315Z,7.00
2019-03-17T16:30:26.066Z,7.00
2019-03-17T16:32:54.589Z,7.00
2019-03-17T16:35:23.247Z,6.80
2019-03-17T16:37:51.850Z,6.70
2019-03-17T16:40:28.972Z,6.70
2019-03-17T16:42:57.676Z,6.60
2019-03-17T16:45:26.457Z,6.50
2019-03-17T16:47:55.146Z,6.40
2019-03-17T16:50:24.250Z,6.40
2019-03-17T16:52:52.846Z,6.40
2019-03-17T16:55:21.365Z,6.30
2019-03-17T16:57:49.893Z,6.30
2019-03-17T17:00:21.555Z,6.30
2019-03-17T17:02:50.660Z,6.30
2019-03-17T17:05:20.243Z,6.20
2019-03-17T17:07:48.912Z,6.20
2019-03-17T17:10:22.700Z,6.20
2019-03-17T17:12:51.212Z,6.20
2019-03-17T17:15:33.715Z,6.20
2019-03-17T17:18:02.251Z,6.20
2019-03-17T17:20:34.905Z,6.20
2019-03-17T17:23:03.737Z,6.20
2019-03-17T17:25:32.198Z,6.20
2019-03-17T17:28:00.753Z,6.20
2019-03-17T17:30:29.311Z,6.20
2019-03-17T17:32:57.828Z,6.10
2019-03-17T17:35:26.288Z,6.10
2019-03-17T17:37:54.935Z,6.10
2019-03-17T17:40:27.267Z,6.10
2019-03-17T17:42:55.792Z,6.10
2019-03-17T17:45:26.282Z,6.10
2019-03-17T17:47:54.737Z,6.10
2019-03-17T17:50:24.392Z,6.10
2019-03-17T17:52:53.052Z,6.00
2019-03-17T17:55:21.529Z,6.00
2019-03-17T17:57:52.666Z,6.00
2019-03-17T18:00:24.938Z,6.00
2019-03-17T18:02:53.450Z,6.00
2019-03-17T18:05:21.974Z,6.00
2019-03-17T18:07:50.523Z,6.00
2019-03-17T18:10:19.481Z,5.90
2019-03-17T18:12:47.961Z,6.00
2019-03-17T18:15:21.521Z,5.90
2019-03-17T18:17:50.045Z,5.90
2019-03-17T18:20:18.523Z,5.90
2019-03-17T18:22:47.184Z,5.90
2019-03-17T18:25:17.984Z,5.90
2019-03-17T18:27:46.505Z,5.90
2019-03-17T18:30:19.429Z,5.90
2019-03-17T18:32:48.189Z,5.90
2019-03-17T18:35:16.655Z,5.80
2019-03-17T18:37:45.306Z,5.80
2019-03-17T18:40:22.037Z,5.80
2019-03-17T18:42:50.708Z,5.80
2019-03-17T18:45:22.256Z,5.80
2019-03-17T18:47:50.782Z,5.80
2019-03-17T18:50:20.894Z,5.80
2019-03-17T18:52:49.473Z,5.80
2019-03-17T18:55:18.145Z,5.80
2019-03-17T18:57:46.840Z,5.80
2019-03-17T19:00:22.497Z,5.80
2019-03-17T19:02:51.035Z,5.80
2019-03-17T19:05:20.410Z,5.80
2019-03-17T19:07:49.069Z,5.80
2019-03-17T19:10:39.058Z,5.80
2019-03-17T19:13:07.593Z,5.80
2019-03-17T19:15:36.121Z,5.70
2019-03-17T19:18:05.078Z,5.70
2019-03-17T19:20:33.529Z,5.70
2019-03-17T19:23:01.990Z,5.70
2019-03-17T19:25:30.570Z,5.70
2019-03-17T19:27:59.031Z,5.60
2019-03-17T19:30:27.490Z,5.60
2019-03-17T19:32:56.984Z,5.60
2019-03-17T19:35:25.458Z,5.70
2019-03-17T19:37:53.990Z,5.60
2019-03-17T19:40:25.969Z,5.60
2019-03-17T19:42:59.265Z,5.60
2019-03-17T19:45:24.810Z,5.60
2019-03-17T19:47:53.382Z,5.60
2019-03-17T19:50:22.953Z,5.60
2019-03-17T19:52:51.535Z,5.60
2019-03-17T19:55:20.114Z,5.60
2019-03-17T19:57:48.643Z,5.60
2019-03-17T20:00:38.971Z,5.60
2019-03-17T20:03:07.599Z,5.60
2019-03-17T20:05:36.078Z,5.60
2019-03-17T20:08:04.730Z,5.60
2019-03-17T20:10:34.241Z,5.60
2019-03-17T20:13:11.515Z,5.60
2019-03-17T20:15:32.929Z,5.60
2019-03-17T20:18:01.401Z,5.50
2019-03-17T20:20:29.951Z,5.60
2019-03-17T20:22:58.507Z,5.50
2019-03-17T20:25:26.955Z,5.50
2019-03-17T20:27:55.413Z,5.50
2019-03-17T20:30:23.985Z,5.50
2019-03-17T20:33:11.873Z,5.50
2019-03-17T20:35:40.379Z,5.50
2019-03-17T20:38:08.856Z,5.50
2019-03-17T20:40:37.391Z,5.50
2019-03-17T20:43:18.451Z,5.50
2019-03-17T20:45:36.103Z,5.40
2019-03-17T20:48:04.744Z,5.40
2019-03-17T20:50:33.415Z,5.40
2019-03-17T20:53:01.956Z,5.40
2019-03-17T20:55:30.497Z,5.40
2019-03-17T20:57:59.067Z,5.40
2019-03-17T21:00:27.542Z,5.40
2019-03-17T21:02:56.151Z,5.40
2019-03-17T21:05:24.670Z,5.40
2019-03-17T21:07:53.194Z,5.40
2019-03-17T21:10:21.686Z,5.40
2019-03-17T21:12:50.246Z,5.30
2019-03-17T21:15:20.352Z,5.30
2019-03-17T21:17:48.889Z,5.30
2019-03-17T21:20:24.752Z,5.30
2019-03-17T21:22:53.207Z,5.30
2019-03-17T21:25:21.670Z,5.30
2019-03-17T21:27:50.214Z,5.30
2019-03-17T21:30:27.600Z,5.30
2019-03-17T21:32:56.186Z,5.30
2019-03-17T21:35:24.783Z,5.30
2019-03-17T21:37:53.315Z,5.30
2019-03-17T21:40:21.979Z,5.30
2019-03-17T21:42:50.440Z,5.30
2019-03-17T21:45:18.895Z,5.30
2019-03-17T21:47:47.449Z,5.30
2019-03-17T21:50:19.985Z,5.30
2019-03-17T21:52:48.503Z,5.30
2019-03-17T21:55:17.153Z,5.30
2019-03-17T21:57:45.708Z,5.30
2019-03-17T22:00:20.741Z,5.30
2019-03-17T22:02:49.322Z,5.30
2019-03-17T22:05:17.929Z,5.30
2019-03-17T22:07:51.095Z,5.30
2019-03-17T22:10:18.131Z,5.30
2019-03-17T22:12:46.671Z,5.30
2019-03-17T22:15:17.058Z,5.30
2019-03-17T22:17:46.155Z,5.30
2019-03-17T22:20:15.448Z,5.30
2019-03-17T22:22:43.911Z,5.30
2019-03-17T22:25:13.641Z,5.30
2019-03-17T22:27:42.374Z,5.20
2019-03-17T22:30:30.288Z,5.20
2019-03-17T22:32:58.974Z,5.00
2019-03-17T22:35:27.450Z,5.00
2019-03-17T22:37:55.969Z,4.90
2019-03-17T22:40:24.470Z,4.90
2019-03-17T22:42:52.923Z,5.00
2019-03-17T22:45:21.412Z,5.00
2019-03-17T22:47:50.442Z,5.00
2019-03-17T22:50:19.338Z,4.90
2019-03-17T22:52:48.016Z,4.90
2019-03-17T22:55:16.599Z,4.80
2019-03-17T22:57:45.192Z,4.90
2019-03-17T23:00:20.025Z,4.90
2019-03-17T23:02:48.485Z,4.90
2019-03-17T23:05:16.929Z,5.00
2019-03-17T23:07:45.697Z,5.00
2019-03-17T23:10:14.525Z,4.90
2019-03-17T23:12:43.905Z,5.00
2019-03-17T23:15:13.437Z,5.10
2019-03-17T23:17:43.598Z,5.10
2019-03-17T23:20:16.185Z,5.10
2019-03-17T23:22:44.836Z,5.10
2019-03-17T23:25:13.625Z,5.10
2019-03-17T23:27:42.156Z,5.10
2019-03-17T23:30:24.085Z,5.10
2019-03-17T23:32:52.849Z,5.10
2019-03-17T23:35:21.380Z,5.00
2019-03-17T23:37:50.151Z,5.00
2019-03-17T23:40:18.683Z,5.00
2019-03-17T23:42:47.471Z,5.00
2019-03-17T23:45:16.496Z,5.00
2019-03-17T23:47:45.121Z,5.00
2019-03-17T23:50:15.452Z,5.00
2019-03-17T23:52:44.507Z,5.10
2019-03-17T23:55:14.538Z,5.10
2019-03-17T23:57:43.077Z,5.10
